Time;durP1;ratioP1;P1;durP2;ratioP2;P2;SDS_P1;SDS_P2;PMS_P1;PMS_P2;Temp;Humidity;BMP_temperature;BMP_pressure;BME280_temperature;BME280_humidity;BME280_pressure;Samples;Min_cycle;Max_cycle;Signal;HPM_P1;HPM_P2
2023/01/29 00:01:46;;;;;;;20.57;14.93;;;3.40;99.90;;;;;;5102790;28;20483;-72
2023/01/29 00:04:18;;;;;;;21.87;15.67;;;3.40;99.90;;;;;;5097238;27;20467;-72
2023/01/29 00:06:49;;;;;;;18.47;14.40;;;3.50;99.90;;;;;;5100846;28;20471;-72
2023/01/29 00:09:20;;;;;;;19.37;14.97;;;3.50;99.90;;;;;;5096060;28;20467;-72
2023/01/29 00:11:47;;;;;;;17.70;14.33;;;3.50;99.90;;;;;;5105889;28;20491;-71
2023/01/29 00:14:19;;;;;;;19.27;14.97;;;3.40;99.90;;;;;;5099988;27;20498;-72
2023/01/29 00:16:47;;;;;;;19.60;14.10;;;3.40;99.90;;;;;;5099134;28;20479;-72
2023/01/29 00:19:18;;;;;;;22.47;16.00;;;3.40;99.90;;;;;;5110405;28;20493;-72
2023/01/29 00:21:56;;;;;;;19.73;15.63;;;3.40;99.90;;;;;;5097400;28;20924;-72
2023/01/29 00:24:26;;;;;;;16.27;13.00;;;3.40;99.90;;;;;;5103395;28;20520;-72
2023/01/29 00:26:54;;;;;;;18.67;13.73;;;3.40;99.90;;;;;;5101438;28;20477;-72
2023/01/29 00:29:25;;;;;;;17.07;14.30;;;3.50;99.90;;;;;;5106200;28;20459;-72
2023/01/29 00:31:53;;;;;;;20.60;14.20;;;3.40;99.90;;;;;;5106961;27;20491;-72
2023/01/29 00:34:22;;;;;;;19.80;14.27;;;3.50;99.90;;;;;;5091161;27;20497;-72
2023/01/29 00:37:03;;;;;;;19.53;13.80;;;3.50;99.90;;;;;;5082342;28;20967;-72
2023/01/29 00:39:37;;;;;;;17.10;13.50;;;3.40;99.90;;;;;;5095632;28;20486;-72
2023/01/29 00:45:00;;;;;;;18.23;13.53;;;3.40;99.90;;;;;;5102843;28;20467;-72
2023/01/29 00:47:35;;;;;;;15.57;12.50;;;3.50;99.90;;;;;;5098374;28;20478;-72
2023/01/29 00:50:05;;;;;;;16.00;12.50;;;3.40;99.90;;;;;;5093489;27;20616;-72
2023/01/29 00:52:39;;;;;;;17.00;12.67;;;3.40;99.90;;;;;;5090478;28;20483;-72
2023/01/29 00:55:10;;;;;;;13.50;11.50;;;3.50;99.90;;;;;;5085453;28;20486;-72
2023/01/29 00:57:41;;;;;;;19.13;12.87;;;3.50;99.90;;;;;;5085995;28;20472;-72
2023/01/29 01:00:20;;;;;;;18.13;13.00;;;3.50;99.90;;;;;;5093910;27;20464;-72
2023/01/29 01:03:04;;;;;;;16.23;12.47;;;3.50;99.90;;;;;;5098079;28;20483;-72
2023/01/29 01:05:41;;;;;;;20.00;12.37;;;3.50;99.90;;;;;;5086185;27;20467;-72
2023/01/29 01:11:05;;;;;;;15.90;12.60;;;3.50;99.90;;;;;;5089428;28;20487;-72
2023/01/29 01:13:38;;;;;;;17.17;11.90;;;3.50;99.90;;;;;;5094574;28;20470;-72
2023/01/29 01:16:17;;;;;;;16.63;12.50;;;3.50;99.90;;;;;;5097023;28;20475;-72
2023/01/29 01:18:50;;;;;;;16.27;12.60;;;3.60;99.90;;;;;;5094324;27;20520;-72
2023/01/29 01:21:25;;;;;;;13.67;12.00;;;3.50;99.90;;;;;;5096942;27;20479;-72
2023/01/29 01:24:11;;;;;;;16.53;12.20;;;3.60;99.90;;;;;;5097240;27;20468;-72
2023/01/29 01:26:39;;;;;;;13.37;10.73;;;3.50;99.90;;;;;;5095314;28;20471;-72
2023/01/29 01:29:09;;;;;;;16.23;12.70;;;3.60;99.90;;;;;;5107891;28;20464;-72
2023/01/29 01:31:38;;;;;;;16.93;12.90;;;3.60;99.90;;;;;;5104586;28;20491;-72
2023/01/29 01:34:11;;;;;;;18.60;13.00;;;3.60;99.90;;;;;;5102932;27;21021;-72
2023/01/29 07:23:27;;;;;;;16.13;12.00;;;3.50;99.90;;;;;;5820875;22;20498;-89
2023/01/29 07:25:56;;;;;;;17.40;13.23;;;3.50;99.90;;;;;;5102402;28;20912;-89
2023/01/29 07:28:24;;;;;;;18.63;13.23;;;3.50;99.90;;;;;;5105064;28;20928;-89
2023/01/29 07:30:56;;;;;;;16.10;12.97;;;3.50;99.90;;;;;;5099339;28;20460;-90
2023/01/29 07:33:24;;;;;;;15.73;12.70;;;3.50;99.90;;;;;;5096413;28;20578;-89
2023/01/29 07:35:53;;;;;;;15.40;12.40;;;3.50;99.90;;;;;;5097699;28;20465;-89
2023/01/29 07:38:21;;;;;;;20.63;13.00;;;3.50;99.90;;;;;;5098838;28;20947;-89
2023/01/29 07:43:29;;;;;;;17.00;12.83;;;3.50;99.90;;;;;;5072343;22;20697;-73
2023/01/29 07:46:01;;;;;;;18.80;13.57;;;3.50;99.90;;;;;;5079316;28;20465;-72
2023/01/29 07:48:29;;;;;;;18.60;13.87;;;3.50;99.90;;;;;;5096727;28;20994;-72
2023/01/29 07:50:59;;;;;;;18.33;14.70;;;3.50;99.90;;;;;;5098019;28;20459;-72
2023/01/29 07:53:28;;;;;;;19.13;14.30;;;3.50;99.90;;;;;;5099965;28;20490;-72
2023/01/29 07:55:56;;;;;;;19.00;14.63;;;3.50;99.90;;;;;;5087579;28;20476;-72
2023/01/29 07:58:24;;;;;;;17.80;14.50;;;3.50;99.90;;;;;;5082323;28;20468;-72
2023/01/29 08:00:53;;;;;;;20.30;14.30;;;3.40;99.90;;;;;;5102551;22;20461;-77
2023/01/29 08:03:22;;;;;;;17.40;15.20;;;3.40;99.90;;;;;;5108990;28;20488;-75
2023/01/29 08:05:50;;;;;;;20.63;16.30;;;3.40;99.90;;;;;;5106490;27;20476;-75
2023/01/29 08:08:19;;;;;;;20.30;16.10;;;3.40;99.90;;;;;;5115378;28;20475;-74
2023/01/29 08:10:47;;;;;;;21.50;14.90;;;3.40;99.90;;;;;;5107656;28;20494;-75
2023/01/29 08:13:15;;;;;;;19.20;15.80;;;3.40;99.90;;;;;;5112868;27;20497;-74
2023/01/29 08:15:44;;;;;;;19.70;16.00;;;3.40;99.90;;;;;;5104392;28;20471;-74
2023/01/29 08:18:15;;;;;;;23.53;16.00;;;3.40;99.90;;;;;;5107932;28;20853;-75
2023/01/29 08:20:44;;;;;;;21.43;16.27;;;3.40;99.90;;;;;;5105436;27;20502;-73
2023/01/29 08:23:14;;;;;;;23.03;16.53;;;3.40;99.90;;;;;;5110528;27;20463;-74
2023/01/29 08:25:42;;;;;;;23.50;17.43;;;3.40;99.90;;;;;;5108327;27;20478;-74
2023/01/29 08:28:20;;;;;;;22.90;17.57;;;3.50;99.90;;;;;;5104486;28;20484;-76
2023/01/29 08:30:51;;;;;;;22.20;17.07;;;3.50;99.90;;;;;;5094427;27;20592;-73
2023/01/29 08:33:21;;;;;;;22.83;17.97;;;3.50;99.90;;;;;;5112452;28;20582;-74
2023/01/29 08:36:03;;;;;;;23.20;17.80;;;3.50;99.90;;;;;;5114375;27;20921;-74
2023/01/29 08:38:31;;;;;;;23.73;18.30;;;3.50;99.90;;;;;;5108829;27;20498;-74
2023/01/29 08:40:59;;;;;;;21.77;17.50;;;3.50;99.90;;;;;;5098969;28;20484;-74
2023/01/29 08:43:27;;;;;;;24.60;18.73;;;3.50;99.90;;;;;;5103857;28;20467;-74
2023/01/29 08:45:55;;;;;;;24.87;18.00;;;3.60;99.90;;;;;;5118556;27;20507;-74
2023/01/29 08:48:24;;;;;;;24.60;18.87;;;3.60;99.90;;;;;;5116652;28;20527;-76
2023/01/29 08:50:52;;;;;;;24.80;19.37;;;3.60;99.90;;;;;;5124572;28;20475;-74
2023/01/29 08:53:23;;;;;;;27.40;20.77;;;3.50;99.90;;;;;;5114316;27;20488;-75
2023/01/29 08:55:52;;;;;;;25.87;20.70;;;3.50;99.90;;;;;;5117777;27;20455;-74
2023/01/29 08:58:20;;;;;;;27.57;22.13;;;3.50;99.90;;;;;;5117149;27;20520;-74
2023/01/29 09:00:50;;;;;;;24.87;19.33;;;3.60;99.90;;;;;;5103120;28;20490;-74
2023/01/29 09:03:18;;;;;;;23.73;19.60;;;3.60;99.90;;;;;;5109403;27;20504;-74
2023/01/29 09:05:48;;;;;;;27.73;20.50;;;3.60;99.90;;;;;;5119419;27;20463;-74
2023/01/29 09:08:16;;;;;;;26.63;21.17;;;3.60;99.90;;;;;;5116678;27;20475;-75
2023/01/29 09:10:44;;;;;;;30.97;21.67;;;3.70;99.90;;;;;;5112304;27;20472;-76
2023/01/29 09:13:12;;;;;;;29.50;21.60;;;3.70;99.90;;;;;;5118660;27;20494;-73
2023/01/29 09:15:40;;;;;;;29.00;22.40;;;3.70;99.90;;;;;;5115666;27;20479;-75
2023/01/29 09:18:10;;;;;;;29.70;22.00;;;3.70;99.90;;;;;;5119395;28;20468;-74
2023/01/29 09:20:38;;;;;;;28.43;22.17;;;3.70;99.90;;;;;;5120931;27;20470;-74
2023/01/29 09:23:09;;;;;;;30.30;22.47;;;3.70;99.90;;;;;;5114358;28;20463;-74
2023/01/29 09:25:43;;;;;;;31.57;23.73;;;3.70;99.90;;;;;;5113734;28;20460;-74
2023/01/29 09:28:12;;;;;;;35.47;24.50;;;3.70;99.90;;;;;;5103777;27;20478;-74
2023/01/29 09:30:40;;;;;;;33.23;23.53;;;3.80;99.90;;;;;;5118010;27;20471;-75
2023/01/29 09:33:08;;;;;;;32.03;23.70;;;3.80;99.90;;;;;;5116653;27;20532;-74
2023/01/29 09:35:36;;;;;;;29.70;23.97;;;3.80;99.90;;;;;;5117154;27;20460;-74
2023/01/29 09:38:04;;;;;;;31.03;24.37;;;3.90;99.90;;;;;;5115091;27;20467;-74
2023/01/29 09:40:46;;;;;;;34.50;25.10;;;3.80;99.90;;;;;;5115817;27;20514;-74
2023/01/29 09:43:18;;;;;;;34.33;24.10;;;3.90;99.90;;;;;;5107761;27;21602;-73
2023/01/29 09:45:53;;;;;;;33.73;25.37;;;3.90;99.90;;;;;;5110824;27;20467;-74
2023/01/29 09:48:25;;;;;;;31.13;23.10;;;3.90;99.90;;;;;;5102757;28;20468;-74
2023/01/29 09:50:56;;;;;;;33.07;23.97;;;3.90;99.90;;;;;;5108887;28;21053;-75
2023/01/29 09:53:31;;;;;;;32.17;25.90;;;3.90;99.90;;;;;;5107820;28;20969;-74
2023/01/29 09:56:04;;;;;;;32.83;24.90;;;3.90;99.90;;;;;;5103627;27;20491;-74
2023/01/29 09:58:35;;;;;;;29.43;24.23;;;3.90;99.90;;;;;;5113447;27;20468;-74
2023/01/29 10:01:13;;;;;;;33.93;24.00;;;3.90;99.90;;;;;;5102032;28;20506;-74
2023/01/29 10:04:05;;;;;;;31.70;23.93;;;3.90;99.90;;;;;;5113810;27;20459;-75
2023/01/29 10:06:59;;;;;;;33.00;25.53;;;4.00;99.90;;;;;;5110746;28;20559;-75
2023/01/29 10:09:56;;;;;;;29.73;23.93;;;4.00;99.90;;;;;;5100942;28;20522;-74
2023/01/29 10:12:49;;;;;;;29.83;23.40;;;4.00;99.90;;;;;;5112381;28;20515;-74
2023/01/29 10:15:28;;;;;;;32.60;23.00;;;4.00;99.90;;;;;;5113667;28;20468;-74
2023/01/29 10:18:11;;;;;;;29.33;22.90;;;4.00;99.90;;;;;;5110902;27;21018;-74
2023/01/29 10:20:56;;;;;;;29.90;23.03;;;4.10;99.90;;;;;;5117427;27;20498;-74
2023/01/29 10:23:27;;;;;;;29.70;23.70;;;4.10;99.90;;;;;;5124007;27;20469;-74
2023/01/29 10:25:55;;;;;;;31.03;22.47;;;4.10;99.90;;;;;;5110352;27;20494;-74
2023/01/29 10:28:31;;;;;;;27.77;21.80;;;4.10;99.90;;;;;;5109248;27;21010;-74
2023/01/29 10:31:03;;;;;;;27.00;22.60;;;4.10;99.90;;;;;;5107393;27;20491;-75
2023/01/29 10:33:40;;;;;;;30.80;23.27;;;4.20;99.90;;;;;;5104152;27;20606;-75
2023/01/29 10:36:34;;;;;;;32.60;24.63;;;4.10;99.90;;;;;;5104032;28;20484;-75
2023/01/29 10:39:02;;;;;;;29.90;23.00;;;4.10;99.90;;;;;;5112403;28;20592;-76
2023/01/29 10:41:42;;;;;;;32.83;24.60;;;4.10;99.90;;;;;;5097273;27;20487;-75
2023/01/29 10:44:25;;;;;;;32.17;24.53;;;4.20;99.90;;;;;;5100446;28;20475;-74
2023/01/29 10:47:28;;;;;;;32.20;25.03;;;4.20;99.90;;;;;;5105127;27;20528;-74
2023/01/29 10:50:12;;;;;;;31.03;23.90;;;4.20;99.90;;;;;;5101947;28;20459;-75
2023/01/29 10:52:58;;;;;;;33.47;25.20;;;4.20;99.90;;;;;;5118886;27;20520;-75
2023/01/29 10:55:41;;;;;;;31.97;25.00;;;4.20;99.90;;;;;;5110956;27;20471;-75
2023/01/29 10:58:19;;;;;;;31.67;24.00;;;4.20;99.90;;;;;;5110246;27;20962;-76
2023/01/29 11:00:49;;;;;;;32.77;25.03;;;4.20;99.90;;;;;;5115220;28;20491;-76
2023/01/29 11:03:21;;;;;;;32.77;26.57;;;4.20;99.90;;;;;;5118943;27;20463;-75
2023/01/29 11:06:02;;;;;;;34.53;25.23;;;4.20;99.90;;;;;;5107866;28;20456;-76
2023/01/29 11:08:37;;;;;;;33.63;25.93;;;4.20;99.90;;;;;;5105374;28;21049;-78
2023/01/29 11:11:08;;;;;;;32.07;24.43;;;4.20;99.90;;;;;;5099701;27;20487;-75
2023/01/29 11:13:41;;;;;;;32.77;25.87;;;4.30;99.90;;;;;;5104747;28;20494;-74
2023/01/29 11:16:10;;;;;;;31.27;25.77;;;4.30;99.90;;;;;;5104482;28;20485;-76
2023/01/29 11:18:55;;;;;;;33.63;26.47;;;4.30;99.90;;;;;;5103336;28;20473;-76
2023/01/29 11:21:23;;;;;;;34.33;25.63;;;4.30;99.90;;;;;;5111258;28;20486;-75
2023/01/29 11:24:06;;;;;;;31.97;25.90;;;4.30;99.90;;;;;;5104066;28;20639;-75
2023/01/29 11:26:37;;;;;;;33.03;25.00;;;4.30;99.90;;;;;;5114689;28;20468;-74
2023/01/29 11:29:05;;;;;;;33.60;25.60;;;4.30;99.90;;;;;;5111930;28;20533;-71
2023/01/29 11:31:38;;;;;;;43.20;25.57;;;4.30;99.90;;;;;;5099045;28;20491;-72
2023/01/29 11:34:18;;;;;;;31.37;25.50;;;4.30;99.90;;;;;;5100117;28;20661;-72
2023/01/29 11:36:46;;;;;;;34.37;25.53;;;4.30;99.90;;;;;;5110973;28;20542;-73
2023/01/29 11:39:19;;;;;;;32.33;24.50;;;4.30;99.90;;;;;;5113056;28;20970;-73
2023/01/29 11:41:53;;;;;;;31.83;25.00;;;4.30;99.90;;;;;;5103712;28;20491;-72
2023/01/29 11:44:27;;;;;;;29.80;24.10;;;4.40;99.90;;;;;;5109755;27;20463;-73
2023/01/29 11:46:59;;;;;;;33.10;25.70;;;4.40;99.90;;;;;;5103693;28;20713;-73
2023/01/29 11:49:33;;;;;;;32.60;25.90;;;4.40;99.90;;;;;;5098470;27;20476;-74
2023/01/29 11:52:04;;;;;;;30.07;23.20;;;4.50;99.90;;;;;;5115530;27;20870;-74
2023/01/29 11:54:39;;;;;;;31.53;24.07;;;4.50;99.90;;;;;;5125110;27;20866;-74
2023/01/29 11:57:21;;;;;;;28.00;23.70;;;4.60;99.90;;;;;;5115550;27;20466;-74
2023/01/29 11:59:51;;;;;;;29.90;23.13;;;4.60;99.90;;;;;;5116818;28;20467;-74
2023/01/29 12:02:26;;;;;;;30.50;23.90;;;4.60;99.90;;;;;;5116203;28;20506;-73
2023/01/29 12:04:58;;;;;;;26.37;22.53;;;4.60;99.90;;;;;;5115005;28;20464;-73
2023/01/29 12:07:26;;;;;;;28.07;23.80;;;4.60;99.90;;;;;;5115193;27;20578;-73
2023/01/29 12:09:58;;;;;;;27.73;23.60;;;4.70;99.90;;;;;;5119306;28;20464;-74
2023/01/29 12:12:39;;;;;;;28.37;22.53;;;4.70;99.90;;;;;;5112031;27;20479;-74
2023/01/29 12:15:23;;;;;;;29.07;23.07;;;4.70;99.90;;;;;;5121307;27;20924;-74
2023/01/29 12:17:59;;;;;;;30.67;23.20;;;4.70;99.90;;;;;;5125731;27;21036;-74
2023/01/29 12:20:34;;;;;;;29.80;24.60;;;4.70;99.90;;;;;;5124709;27;20551;-73
2023/01/29 12:23:11;;;;;;;27.37;22.53;;;4.70;99.90;;;;;;5123104;27;20472;-74
2023/01/29 12:25:50;;;;;;;28.30;23.10;;;4.70;99.90;;;;;;5119234;27;20456;-73
2023/01/29 12:28:37;;;;;;;27.30;21.93;;;4.70;99.90;;;;;;5125441;27;20475;-74
2023/01/29 12:31:15;;;;;;;27.70;22.83;;;4.70;99.90;;;;;;5114002;27;20487;-74
2023/01/29 12:33:52;;;;;;;28.67;22.90;;;4.70;99.90;;;;;;5123571;27;20511;-74
2023/01/29 12:36:27;;;;;;;26.87;21.20;;;4.70;99.90;;;;;;5121695;27;20474;-75
2023/01/29 12:38:57;;;;;;;26.97;22.77;;;4.70;99.90;;;;;;5116172;27;20472;-73
2023/01/29 12:41:34;;;;;;;25.23;21.80;;;4.70;99.90;;;;;;5112663;27;20506;-74
2023/01/29 12:44:07;;;;;;;29.17;23.03;;;4.70;99.90;;;;;;5117131;27;21954;-74
2023/01/29 12:46:43;;;;;;;31.43;23.07;;;4.60;99.90;;;;;;5106285;27;20463;-74
2023/01/29 12:49:17;;;;;;;31.30;24.53;;;4.60;99.90;;;;;;5093717;28;20816;-74
2023/01/29 12:51:54;;;;;;;34.87;27.17;;;4.60;99.90;;;;;;5093990;28;20495;-74
2023/01/29 12:54:27;;;;;;;32.00;25.83;;;4.70;99.90;;;;;;5099661;27;20498;-75
2023/01/29 12:57:00;;;;;;;31.13;24.80;;;4.80;99.90;;;;;;5095846;28;20556;-73
2023/01/29 12:59:32;;;;;;;1005.70;717.20;;;4.90;99.90;;;;;;5092855;28;20524;-74
2023/01/29 13:02:12;;;;;;;693.20;618.20;;;5.00;99.90;;;;;;5091373;28;20500;-73
2023/01/29 13:04:44;;;;;;;392.07;353.90;;;5.20;99.90;;;;;;5090284;28;20467;-75
2023/01/29 13:07:17;;;;;;;102.40;89.93;;;5.40;99.90;;;;;;5090463;28;21919;-74
2023/01/29 13:09:50;;;;;;;259.27;242.30;;;5.50;99.90;;;;;;5094504;28;20822;-74
2023/01/29 13:12:20;;;;;;;862.07;788.03;;;5.60;99.90;;;;;;5069426;28;20487;-73
2023/01/29 13:14:54;;;;;;;199.23;187.10;;;5.70;99.90;;;;;;5072040;28;20484;-74
2023/01/29 13:17:28;;;;;;;39.97;36.23;;;5.80;99.90;;;;;;5081023;27;20482;-74
2023/01/29 13:20:01;;;;;;;35.87;32.40;;;5.90;99.90;;;;;;5075371;27;20759;-75
2023/01/29 13:22:34;;;;;;;56.63;48.10;;;6.00;99.90;;;;;;5079464;28;20490;-76
2023/01/29 13:25:03;;;;;;;25.17;21.00;;;6.20;99.90;;;;;;5092019;27;21208;-74
2023/01/29 13:27:34;;;;;;;26.20;21.37;;;6.30;99.90;;;;;;5070675;27;20465;-75
2023/01/29 13:30:04;;;;;;;24.13;21.53;;;6.30;99.90;;;;;;5078190;28;20476;-75
2023/01/29 13:32:34;;;;;;;24.53;21.83;;;6.20;99.90;;;;;;5079835;27;20500;-73
2023/01/29 13:35:11;;;;;;;22.20;19.80;;;6.10;99.90;;;;;;5080837;27;21641;-74
2023/01/29 13:37:47;;;;;;;23.73;20.90;;;6.00;99.90;;;;;;5089083;28;20474;-74
2023/01/29 13:40:23;;;;;;;24.90;19.93;;;5.90;99.90;;;;;;5071746;28;20472;-73
2023/01/29 13:42:53;;;;;;;27.03;22.17;;;5.80;99.90;;;;;;5092787;28;20487;-73
2023/01/29 13:45:23;;;;;;;26.53;22.27;;;5.80;99.90;;;;;;5104081;27;20459;-73
2023/01/29 13:47:52;;;;;;;24.00;20.73;;;5.70;99.90;;;;;;5099242;28;21746;-77
2023/01/29 13:50:30;;;;;;;24.10;20.30;;;5.70;99.90;;;;;;5107290;27;20479;-75
2023/01/29 13:53:00;;;;;;;24.17;21.13;;;5.70;99.90;;;;;;5100792;27;20861;-73
2023/01/29 13:55:33;;;;;;;25.70;22.73;;;5.50;99.90;;;;;;5104359;27;20488;-73
2023/01/29 13:58:01;;;;;;;25.57;22.10;;;5.40;99.90;;;;;;5103862;28;20471;-74
2023/01/29 14:00:57;;;;;;;24.10;21.17;;;5.40;99.90;;;;;;5102905;28;20479;-73
2023/01/29 14:03:43;;;;;;;25.17;20.90;;;5.40;99.90;;;;;;5111732;22;20503;-72
2023/01/29 14:06:51;;;;;;;24.70;20.30;;;5.30;99.90;;;;;;5102651;28;20575;-71
2023/01/29 14:09:58;;;;;;;28.60;22.87;;;5.20;99.90;;;;;;5105490;27;21009;-71
2023/01/29 14:12:44;;;;;;;25.43;21.53;;;5.20;99.90;;;;;;5098974;28;21131;-71
2023/01/29 14:15:27;;;;;;;25.90;22.33;;;5.20;99.90;;;;;;5108758;28;20488;-71
2023/01/29 14:18:14;;;;;;;26.97;22.50;;;5.10;99.90;;;;;;5100155;27;20551;-71
2023/01/29 14:20:57;;;;;;;26.90;22.00;;;5.10;99.90;;;;;;5098680;27;20471;-71
2023/01/29 14:23:42;;;;;;;27.83;21.47;;;5.00;99.90;;;;;;5106233;28;20479;-70
2023/01/29 14:26:42;;;;;;;28.27;21.37;;;5.00;99.90;;;;;;5103086;28;21013;-71
2023/01/29 14:29:21;;;;;;;27.93;22.40;;;5.00;99.90;;;;;;5074110;28;20460;-71
2023/01/29 14:32:14;;;;;;;27.27;22.80;;;5.00;99.90;;;;;;5094001;28;20488;-71
2023/01/29 14:34:46;;;;;;;27.50;21.60;;;5.00;99.90;;;;;;5095271;27;20471;-71
2023/01/29 14:37:22;;;;;;;25.80;22.10;;;5.00;99.90;;;;;;5110285;28;20460;-71
2023/01/29 14:39:53;;;;;;;27.00;22.67;;;4.90;99.90;;;;;;5112838;27;20499;-71
2023/01/29 14:42:25;;;;;;;27.73;21.93;;;4.90;99.90;;;;;;5114358;27;20473;-71
2023/01/29 14:45:10;;;;;;;29.17;23.63;;;4.90;99.90;;;;;;5117541;28;20447;-71
2023/01/29 14:48:02;;;;;;;30.30;23.60;;;4.90;99.90;;;;;;5108601;27;20497;-71
2023/01/29 14:50:58;;;;;;;25.80;21.77;;;4.90;99.90;;;;;;5088275;27;20843;-71
2023/01/29 14:53:39;;;;;;;29.63;23.40;;;4.90;99.90;;;;;;5062200;28;20511;-71
2023/01/29 14:56:15;;;;;;;30.20;22.50;;;4.90;99.90;;;;;;5082135;28;20730;-71
2023/01/29 14:58:46;;;;;;;30.20;22.27;;;4.90;99.90;;;;;;5081942;28;20471;-71
2023/01/29 15:01:22;;;;;;;29.03;24.00;;;4.80;99.90;;;;;;5077314;28;20463;-71
2023/01/29 15:03:53;;;;;;;28.97;23.40;;;4.80;99.90;;;;;;5085820;27;20501;-73
2023/01/29 15:06:28;;;;;;;27.77;22.20;;;4.80;99.90;;;;;;5084902;28;21513;-70
2023/01/29 15:09:04;;;;;;;27.77;21.90;;;4.80;99.90;;;;;;5089552;28;21029;-73
2023/01/29 15:11:46;;;;;;;29.57;22.97;;;4.80;99.90;;;;;;5088778;28;20552;-71
2023/01/29 15:14:24;;;;;;;26.77;23.70;;;4.80;99.90;;;;;;5083806;28;20483;-71
2023/01/29 15:17:02;;;;;;;28.67;22.87;;;4.80;99.90;;;;;;5091536;28;22165;-71
2023/01/29 15:19:35;;;;;;;30.87;24.93;;;4.80;99.90;;;;;;5086196;28;20879;-71
2023/01/29 15:22:12;;;;;;;28.47;23.90;;;4.80;99.90;;;;;;5087439;28;20841;-73
2023/01/29 15:24:42;;;;;;;31.40;24.00;;;4.70;99.90;;;;;;5098703;28;20464;-71
2023/01/29 15:27:15;;;;;;;30.13;25.10;;;4.70;99.90;;;;;;5088680;28;20476;-71
2023/01/29 15:29:48;;;;;;;29.77;24.37;;;4.70;99.90;;;;;;5083846;28;20468;-71
2023/01/29 15:32:28;;;;;;;29.67;23.63;;;4.70;99.90;;;;;;5078948;28;20495;-71
2023/01/29 15:34:59;;;;;;;29.83;23.40;;;4.70;99.90;;;;;;5077865;28;21212;-72
2023/01/29 15:37:33;;;;;;;31.80;24.47;;;4.70;99.90;;;;;;5088038;28;20472;-71
2023/01/29 15:40:05;;;;;;;30.20;24.23;;;4.70;99.90;;;;;;5061320;28;22582;-74
2023/01/29 15:42:47;;;;;;;31.50;24.50;;;4.60;99.90;;;;;;5075769;28;20484;-71
2023/01/29 15:45:27;;;;;;;30.30;24.73;;;4.60;99.90;;;;;;5077181;28;20815;-72
2023/01/29 15:47:58;;;;;;;31.80;24.50;;;4.60;99.90;;;;;;5078031;28;21000;-71
2023/01/29 15:50:28;;;;;;;38.00;25.87;;;4.60;99.90;;;;;;5068164;28;22037;-71
2023/01/29 15:52:58;;;;;;;32.77;25.03;;;4.60;99.90;;;;;;5066156;28;20600;-72
2023/01/29 15:55:27;;;;;;;33.00;25.80;;;4.60;99.90;;;;;;5071573;28;20999;-71
2023/01/29 15:57:56;;;;;;;32.87;26.37;;;4.60;99.90;;;;;;5075414;28;20503;-71
2023/01/29 16:00:27;;;;;;;32.00;24.33;;;4.50;99.90;;;;;;5074862;28;20487;-71
2023/01/29 16:02:55;;;;;;;34.87;26.67;;;4.60;99.90;;;;;;5073479;28;20496;-71
2023/01/29 16:05:27;;;;;;;31.27;25.27;;;4.50;99.90;;;;;;5065964;28;20565;-71
2023/01/29 16:07:57;;;;;;;32.07;24.93;;;4.50;99.90;;;;;;5073376;28;20460;-71
2023/01/29 16:10:28;;;;;;;31.90;25.20;;;4.50;99.90;;;;;;5083137;28;20503;-71
2023/01/29 16:12:59;;;;;;;33.30;25.40;;;4.50;99.90;;;;;;5082937;28;21268;-71
2023/01/29 16:15:34;;;;;;;32.60;26.70;;;4.50;99.90;;;;;;5077105;28;20465;-71
2023/01/29 16:18:05;;;;;;;31.50;25.80;;;4.50;99.90;;;;;;5075645;28;20468;-71
2023/01/29 16:20:37;;;;;;;32.30;25.30;;;4.50;99.90;;;;;;5086871;28;20468;-71
2023/01/29 16:23:06;;;;;;;32.17;24.70;;;4.50;99.90;;;;;;5078577;28;20500;-71
2023/01/29 16:25:38;;;;;;;30.53;24.83;;;4.50;99.90;;;;;;5085712;28;20487;-71
2023/01/29 16:28:09;;;;;;;31.67;24.67;;;4.50;99.90;;;;;;5113120;28;20474;-71
2023/01/29 16:30:38;;;;;;;31.30;24.40;;;4.40;99.90;;;;;;5115559;28;20464;-71
2023/01/29 16:33:12;;;;;;;32.20;25.17;;;4.40;99.90;;;;;;5109694;28;20485;-71
2023/01/29 16:35:40;;;;;;;34.17;26.40;;;4.40;99.90;;;;;;5085264;28;21011;-71
2023/01/29 16:38:22;;;;;;;30.87;22.80;;;4.40;99.90;;;;;;5090043;28;20507;-71
2023/01/29 16:41:07;;;;;;;29.60;24.00;;;4.40;99.90;;;;;;5086481;28;20472;-71
2023/01/29 16:43:52;;;;;;;30.60;23.50;;;4.40;99.90;;;;;;5080678;28;20545;-71
2023/01/29 16:46:35;;;;;;;31.03;24.93;;;4.30;99.90;;;;;;5088191;28;20472;-71
2023/01/29 16:49:20;;;;;;;33.90;24.37;;;4.30;99.90;;;;;;5088253;28;20538;-71
2023/01/29 16:51:48;;;;;;;29.90;23.20;;;4.20;99.90;;;;;;5072766;28;20480;-71
2023/01/29 16:54:17;;;;;;;31.87;24.13;;;4.20;99.90;;;;;;5089417;28;22512;-71
2023/01/29 16:56:46;;;;;;;30.43;24.73;;;4.30;99.90;;;;;;5070256;28;20511;-71
2023/01/29 16:59:25;;;;;;;30.47;24.47;;;4.20;99.90;;;;;;5063220;28;20507;-71
2023/01/29 17:01:55;;;;;;;30.37;23.90;;;4.20;99.90;;;;;;5074939;28;20947;-71
2023/01/29 17:04:23;;;;;;;31.27;24.47;;;4.20;99.90;;;;;;5080331;28;20472;-71
2023/01/29 17:06:56;;;;;;;35.30;23.97;;;4.10;99.90;;;;;;5075065;28;20468;-71
2023/01/29 17:09:28;;;;;;;29.67;23.47;;;4.20;99.90;;;;;;5086206;28;20480;-71
2023/01/29 17:11:59;;;;;;;30.97;24.47;;;4.10;99.90;;;;;;5094831;28;20493;-71
2023/01/29 17:14:30;;;;;;;31.30;24.17;;;4.10;99.90;;;;;;5094816;28;20476;-71
2023/01/29 17:17:03;;;;;;;29.50;23.80;;;4.10;99.90;;;;;;5091825;28;20465;-71
2023/01/29 17:19:31;;;;;;;31.90;24.03;;;4.10;99.90;;;;;;5088690;28;20515;-71
2023/01/29 17:22:04;;;;;;;30.70;24.00;;;4.10;99.90;;;;;;5096370;28;20504;-71
2023/01/29 17:24:35;;;;;;;29.70;23.30;;;4.10;99.90;;;;;;5091149;28;20462;-71
2023/01/29 17:27:06;;;;;;;29.57;23.20;;;4.10;99.90;;;;;;5091948;28;20579;-72
2023/01/29 17:29:35;;;;;;;30.10;22.10;;;4.10;99.90;;;;;;5088372;28;20488;-71
2023/01/29 17:32:03;;;;;;;27.87;21.00;;;4.10;99.90;;;;;;5087766;28;20488;-71
2023/01/29 17:34:37;;;;;;;30.53;22.90;;;4.10;99.90;;;;;;5094325;28;20494;-71
2023/01/29 17:37:05;;;;;;;27.50;21.40;;;4.10;99.90;;;;;;5084755;28;20489;-71
2023/01/29 17:39:33;;;;;;;25.67;21.57;;;4.10;99.90;;;;;;5074029;28;20499;-71
2023/01/29 17:42:01;;;;;;;27.83;22.07;;;4.10;99.90;;;;;;5074046;28;20570;-71
2023/01/29 17:44:30;;;;;;;30.60;23.07;;;4.10;99.90;;;;;;5076400;28;20529;-71
2023/01/29 17:47:01;;;;;;;27.20;22.33;;;4.00;99.90;;;;;;5082286;28;20473;-71
2023/01/29 17:49:31;;;;;;;27.20;21.10;;;4.00;99.90;;;;;;5075736;28;21015;-71
2023/01/29 17:51:59;;;;;;;27.33;21.17;;;4.00;99.90;;;;;;5068990;28;20507;-71
2023/01/29 17:54:27;;;;;;;24.47;20.77;;;4.00;99.90;;;;;;5069654;28;20969;-71
2023/01/29 17:56:55;;;;;;;24.80;19.83;;;4.00;99.90;;;;;;5075855;28;21000;-71
2023/01/29 17:59:33;;;;;;;28.10;21.40;;;4.00;99.90;;;;;;5086468;28;20477;-70
2023/01/29 18:02:02;;;;;;;26.87;21.70;;;4.00;99.90;;;;;;5077781;28;20495;-70
2023/01/29 18:04:31;;;;;;;25.50;20.67;;;3.90;99.90;;;;;;5066859;28;20469;-71
2023/01/29 18:06:59;;;;;;;26.00;21.67;;;3.90;99.90;;;;;;5062371;28;20468;-75
2023/01/29 18:09:27;;;;;;;26.43;21.67;;;3.90;99.90;;;;;;5066942;28;20485;-73
2023/01/29 18:11:55;;;;;;;28.23;21.53;;;3.90;99.90;;;;;;5071345;28;20501;-73
2023/01/29 18:14:23;;;;;;;29.00;23.13;;;3.90;99.90;;;;;;5078701;28;20498;-74
2023/01/29 18:16:51;;;;;;;26.83;21.97;;;3.90;99.90;;;;;;5080909;28;20495;-72
2023/01/29 18:19:26;;;;;;;29.23;22.70;;;3.80;99.90;;;;;;5073343;28;20488;-73
2023/01/29 18:21:54;;;;;;;27.30;21.60;;;3.80;99.90;;;;;;5078080;28;20484;-73
2023/01/29 18:24:22;;;;;;;27.03;22.80;;;3.90;99.90;;;;;;5067435;28;20472;-73
2023/01/29 18:26:53;;;;;;;26.93;21.93;;;3.80;99.90;;;;;;5078339;28;20533;-74
2023/01/29 18:29:20;;;;;;;26.93;21.73;;;3.90;99.90;;;;;;5069669;28;20492;-74
2023/01/29 18:31:49;;;;;;;29.90;23.40;;;3.90;99.90;;;;;;5079858;28;20500;-74
2023/01/29 18:34:18;;;;;;;28.93;22.87;;;3.90;99.90;;;;;;5082022;28;20545;-74
2023/01/29 18:36:47;;;;;;;26.10;20.90;;;3.90;99.90;;;;;;5083414;28;20465;-75
2023/01/29 18:39:17;;;;;;;27.67;21.30;;;3.80;99.90;;;;;;5069268;28;20578;-77
2023/01/29 18:41:45;;;;;;;28.40;22.63;;;3.80;99.90;;;;;;5071032;28;20495;-74
2023/01/29 18:44:13;;;;;;;27.50;22.67;;;3.80;99.90;;;;;;5074742;28;20476;-74
2023/01/29 18:46:41;;;;;;;28.87;22.30;;;3.80;99.90;;;;;;5080926;28;20461;-73
2023/01/29 18:49:09;;;;;;;26.93;21.77;;;3.80;99.90;;;;;;5070710;28;20492;-74
2023/01/29 18:51:37;;;;;;;29.33;22.87;;;3.80;99.90;;;;;;5081843;28;20493;-75
2023/01/29 18:54:06;;;;;;;31.60;23.10;;;3.80;99.90;;;;;;5076125;28;20476;-74
2023/01/29 18:56:34;;;;;;;26.50;20.73;;;3.80;99.90;;;;;;5073052;28;20852;-74
2023/01/29 18:59:02;;;;;;;29.83;23.43;;;3.80;99.90;;;;;;5078516;28;20503;-74
2023/01/29 19:01:33;;;;;;;29.80;23.17;;;3.80;99.90;;;;;;5081143;28;20468;-73
2023/01/29 19:04:01;;;;;;;30.90;21.90;;;3.80;99.90;;;;;;5087066;28;20828;-74